createdAt,value
2017-12-19T00:02:00.188Z,25.75
2017-12-19T00:04:27.629Z,25.92
2017-12-19T00:06:55.213Z,23.50
2017-12-19T00:09:22.652Z,25.90
2017-12-19T00:11:50.125Z,25.67
2017-12-19T00:14:17.569Z,25.48
2017-12-19T00:16:48.000Z,29.65
2017-12-19T00:19:15.467Z,29.30
2017-12-19T00:21:44.235Z,29.90
2017-12-19T00:24:11.998Z,29.05
2017-12-19T00:26:39.433Z,27.67
2017-12-19T00:29:06.872Z,28.77
2017-12-19T00:31:46.570Z,28.12
2017-12-19T00:34:14.005Z,28.20
2017-12-19T00:36:41.533Z,29.60
2017-12-19T00:39:08.938Z,32.58
2017-12-19T00:41:36.378Z,26.40
2017-12-19T00:44:04.102Z,28.73
2017-12-19T00:46:32.311Z,28.20
2017-12-19T00:49:15.631Z,28.48
2017-12-19T00:51:43.073Z,29.70
2017-12-19T00:54:10.542Z,31.15
2017-12-19T00:56:38.006Z,28.62
2017-12-19T00:59:05.436Z,27.70
2017-12-19T01:01:37.956Z,28.25
2017-12-19T01:04:05.512Z,28.27
2017-12-19T01:06:33.919Z,28.65
2017-12-19T01:09:01.385Z,26.02
2017-12-19T01:11:33.829Z,27.05
2017-12-19T01:14:01.276Z,25.15
2017-12-19T01:16:28.712Z,25.35
2017-12-19T01:18:56.314Z,26.75
2017-12-19T01:21:23.785Z,27.08
2017-12-19T01:23:52.161Z,28.80
2017-12-19T01:26:19.597Z,25.80
2017-12-19T01:28:47.109Z,25.67
2017-12-19T01:31:15.353Z,27.00
2017-12-19T01:33:43.158Z,26.73
2017-12-19T01:36:10.596Z,26.50
2017-12-19T01:38:39.142Z,28.50
2017-12-19T01:41:06.577Z,26.52
2017-12-19T01:43:37.072Z,27.77
2017-12-19T01:46:05.278Z,27.45
2017-12-19T01:48:32.736Z,28.80
2017-12-19T01:51:00.225Z,26.00
2017-12-19T01:53:27.693Z,28.70
2017-12-19T01:55:55.133Z,27.13
2017-12-19T01:58:22.673Z,31.30
2017-12-19T02:00:50.148Z,30.10
2017-12-19T02:03:17.616Z,26.90
2017-12-19T02:05:45.081Z,29.52
2017-12-19T02:08:12.522Z,28.92
2017-12-19T02:10:40.135Z,30.60
2017-12-19T02:13:08.365Z,32.65
2017-12-19T02:15:36.753Z,31.65
2017-12-19T02:18:04.218Z,35.92
2017-12-19T02:20:31.652Z,30.12
2017-12-19T02:22:59.245Z,31.87
2017-12-19T02:25:26.711Z,28.95
2017-12-19T02:27:55.076Z,30.75
2017-12-19T02:30:22.525Z,31.30
2017-12-19T02:32:50.014Z,29.75
2017-12-19T02:35:18.229Z,29.63
2017-12-19T02:37:45.698Z,32.25
2017-12-19T02:40:13.167Z,36.30
2017-12-19T02:42:52.402Z,34.63
2017-12-19T02:45:19.849Z,33.25
2017-12-19T02:47:53.481Z,31.98
2017-12-19T02:50:20.921Z,35.67
2017-12-19T02:52:48.424Z,33.55
2017-12-19T02:55:16.628Z,34.88
2017-12-19T02:57:44.101Z,33.03
2017-12-19T03:00:11.543Z,37.45
2017-12-19T03:02:42.829Z,33.17
2017-12-19T03:05:10.401Z,35.80
2017-12-19T03:07:38.617Z,37.85
2017-12-19T03:10:06.825Z,33.33
2017-12-19T03:12:34.414Z,34.65
2017-12-19T03:15:02.632Z,37.33
2017-12-19T03:17:30.075Z,34.30
2017-12-19T03:19:57.547Z,36.83
2017-12-19T03:22:24.991Z,32.17
2017-12-19T03:24:52.785Z,32.60
2017-12-19T03:27:20.264Z,33.33
2017-12-19T03:29:47.723Z,33.97
2017-12-19T03:32:15.172Z,34.92
2017-12-19T03:34:42.708Z,33.17
2017-12-19T03:37:10.156Z,33.65
2017-12-19T03:39:37.621Z,30.45
2017-12-19T03:42:05.081Z,30.17
2017-12-19T03:44:37.698Z,30.67
2017-12-19T03:47:06.064Z,28.80
2017-12-19T03:49:33.504Z,29.40
2017-12-19T03:52:00.973Z,28.70
2017-12-19T03:54:28.441Z,29.70
2017-12-19T03:56:55.889Z,28.58
2017-12-19T03:59:23.365Z,28.65
2017-12-19T04:01:50.805Z,28.35
2017-12-19T04:04:18.249Z,28.92
2017-12-19T04:06:58.773Z,29.02
2017-12-19T04:09:26.209Z,28.20
2017-12-19T04:11:54.449Z,26.92
2017-12-19T04:14:21.921Z,27.50
2017-12-19T04:16:49.393Z,28.75
2017-12-19T04:19:16.838Z,27.40
2017-12-19T04:21:44.429Z,26.95
2017-12-19T04:24:12.696Z,27.08
2017-12-19T04:26:42.898Z,25.83
2017-12-19T04:29:10.340Z,30.05
2017-12-19T04:31:39.430Z,26.45
2017-12-19T04:34:06.873Z,26.87
2017-12-19T04:36:34.319Z,26.90
2017-12-19T04:39:01.934Z,28.52
2017-12-19T04:41:29.369Z,25.00
2017-12-19T04:43:56.833Z,26.17
2017-12-19T04:46:24.278Z,26.80
2017-12-19T04:48:51.745Z,29.05
2017-12-19T04:51:19.181Z,27.17
2017-12-19T04:53:46.648Z,27.17
2017-12-19T04:56:14.093Z,28.90
2017-12-19T04:58:41.606Z,30.12
2017-12-19T05:01:21.913Z,27.95
2017-12-19T05:03:49.384Z,32.20
2017-12-19T05:06:16.822Z,27.77
2017-12-19T05:08:44.402Z,32.22
2017-12-19T05:11:11.844Z,27.40
2017-12-19T05:13:39.284Z,27.55
2017-12-19T05:16:06.781Z,30.08
2017-12-19T05:18:34.217Z,29.95
2017-12-19T05:21:01.685Z,27.70
2017-12-19T05:23:29.124Z,33.47
2017-12-19T05:26:03.362Z,28.38
2017-12-19T05:28:30.849Z,28.08
2017-12-19T05:30:59.064Z,31.23
2017-12-19T05:33:32.266Z,32.00
2017-12-19T05:35:59.704Z,28.45
2017-12-19T05:38:27.147Z,29.67
2017-12-19T05:40:55.409Z,30.33
2017-12-19T05:43:23.622Z,31.37
2017-12-19T05:45:51.060Z,32.10
2017-12-19T05:48:18.733Z,31.15
2017-12-19T05:50:46.181Z,30.62
2017-12-19T05:53:14.394Z,37.38
2017-12-19T05:55:41.869Z,29.60
2017-12-19T05:58:09.316Z,32.20
2017-12-19T06:00:36.780Z,33.35
2017-12-19T06:03:04.226Z,35.05
2017-12-19T06:05:31.901Z,39.47
2017-12-19T06:07:59.352Z,29.80
2017-12-19T06:13:18.249Z,29.00
2017-12-19T06:15:45.714Z,28.17
2017-12-19T06:18:13.154Z,30.05
2017-12-19T06:20:40.905Z,28.87
2017-12-19T06:23:08.361Z,30.02
2017-12-19T06:25:35.801Z,34.00
2017-12-19T06:28:03.470Z,35.42
2017-12-19T06:30:36.857Z,34.85
2017-12-19T06:33:04.300Z,36.33
2017-12-19T06:35:31.746Z,32.55
2017-12-19T06:38:00.119Z,29.80
2017-12-19T06:40:28.350Z,31.05
2017-12-19T06:42:55.816Z,28.50
2017-12-19T06:45:23.264Z,28.12
2017-12-19T06:47:50.709Z,26.65
2017-12-19T06:50:22.017Z,26.60
2017-12-19T06:52:53.996Z,30.73
2017-12-19T06:55:21.450Z,28.30
2017-12-19T06:57:50.278Z,29.25
2017-12-19T07:00:17.722Z,29.95
2017-12-19T07:02:45.936Z,27.98
2017-12-19T07:05:13.401Z,28.75
2017-12-19T07:07:40.860Z,33.17
2017-12-19T07:10:08.468Z,37.58
2017-12-19T07:12:35.937Z,31.98
2017-12-19T07:15:03.396Z,31.05
2017-12-19T07:17:30.878Z,26.90
2017-12-19T07:20:10.392Z,26.15
2017-12-19T07:22:37.921Z,29.45
2017-12-19T07:25:05.365Z,25.95
2017-12-19T07:27:33.689Z,25.55
2017-12-19T07:30:01.173Z,24.63
2017-12-19T07:32:28.645Z,28.38
2017-12-19T07:34:58.897Z,29.92
2017-12-19T07:37:26.332Z,23.48
2017-12-19T07:39:54.537Z,23.87
2017-12-19T07:42:25.790Z,26.58
2017-12-19T07:44:53.221Z,24.17
2017-12-19T07:47:21.560Z,26.10
2017-12-19T07:49:49.000Z,31.70
2017-12-19T07:52:16.498Z,33.78
2017-12-19T07:54:44.712Z,36.97
2017-12-19T07:57:12.154Z,35.63
2017-12-19T07:59:39.621Z,34.88
2017-12-19T08:02:07.839Z,28.67
2017-12-19T08:04:35.437Z,30.85
2017-12-19T08:07:02.876Z,33.25
2017-12-19T08:09:30.381Z,27.65
2017-12-19T08:11:57.825Z,30.25
2017-12-19T08:14:25.273Z,32.15
2017-12-19T08:16:52.747Z,29.08
2017-12-19T08:19:20.213Z,30.50
2017-12-19T08:21:47.654Z,31.98
2017-12-19T08:24:16.434Z,42.50
2017-12-19T08:26:50.770Z,44.83
2017-12-19T08:29:18.412Z,42.65
2017-12-19T08:31:45.853Z,40.80
2017-12-19T08:34:13.297Z,34.35
2017-12-19T08:36:41.537Z,26.80
2017-12-19T08:39:09.005Z,31.67
2017-12-19T08:41:38.408Z,31.65
2017-12-19T08:44:06.154Z,30.67
2017-12-19T08:46:36.445Z,28.65
2017-12-19T08:49:03.917Z,28.48
2017-12-19T08:51:33.386Z,29.33
2017-12-19T08:54:01.613Z,32.40
2017-12-19T08:56:29.053Z,33.95
2017-12-19T08:58:56.526Z,32.38
2017-12-19T09:01:27.997Z,32.63
2017-12-19T09:03:55.511Z,38.42
2017-12-19T09:06:22.965Z,38.28
2017-12-19T09:08:50.433Z,39.03
2017-12-19T09:11:17.872Z,48.70
2017-12-19T09:13:45.349Z,40.03
2017-12-19T09:16:15.830Z,53.67
2017-12-19T09:18:44.050Z,47.47
2017-12-19T09:21:11.665Z,36.50
2017-12-19T09:23:39.106Z,32.42
2017-12-19T09:26:06.549Z,33.47
2017-12-19T09:28:34.079Z,31.25
2017-12-19T09:31:11.975Z,32.13
2017-12-19T09:33:39.463Z,34.55
2017-12-19T09:36:06.905Z,34.00
2017-12-19T09:38:34.350Z,33.65
2017-12-19T09:41:01.914Z,37.90
2017-12-19T09:43:39.122Z,29.50
2017-12-19T09:46:06.604Z,29.77
2017-12-19T09:48:34.069Z,30.17
2017-12-19T09:51:01.510Z,27.90
2017-12-19T09:53:35.049Z,40.78
2017-12-19T09:56:03.258Z,73.70
2017-12-19T09:58:30.790Z,42.80
2017-12-19T10:00:58.261Z,31.15
2017-12-19T10:03:25.709Z,32.45
2017-12-19T10:06:06.945Z,32.72
2017-12-19T10:08:34.621Z,34.88
2017-12-19T10:11:02.095Z,28.08
2017-12-19T10:13:30.354Z,31.62
2017-12-19T10:16:01.605Z,33.85
2017-12-19T10:18:29.056Z,29.25
2017-12-19T10:20:56.721Z,37.20
2017-12-19T10:23:24.196Z,31.70
2017-12-19T10:25:52.398Z,30.23
2017-12-19T10:28:19.877Z,27.92
2017-12-19T10:30:47.334Z,32.60
2017-12-19T10:33:14.912Z,30.58
2017-12-19T10:35:43.309Z,33.40
2017-12-19T10:38:10.805Z,29.48
2017-12-19T10:40:38.245Z,31.90
2017-12-19T10:43:06.478Z,36.05
2017-12-19T10:45:33.926Z,32.40
2017-12-19T10:48:04.418Z,31.80
2017-12-19T10:50:31.870Z,38.00
2017-12-19T10:53:00.198Z,39.88
2017-12-19T10:55:27.721Z,33.40
2017-12-19T10:57:55.965Z,30.52
2017-12-19T11:00:24.180Z,32.80
2017-12-19T11:02:51.673Z,37.78
2017-12-19T11:05:26.797Z,40.05
2017-12-19T11:07:54.272Z,33.67
2017-12-19T11:10:21.861Z,34.33
2017-12-19T11:12:50.134Z,29.73
2017-12-19T11:15:18.343Z,29.30
2017-12-19T11:17:45.785Z,30.08
2017-12-19T11:20:13.257Z,33.83
2017-12-19T11:22:40.710Z,31.67
2017-12-19T11:25:08.143Z,32.30
2017-12-19T11:27:36.490Z,28.42
2017-12-19T11:30:03.936Z,30.30
2017-12-19T11:32:35.264Z,30.12
2017-12-19T11:35:03.252Z,35.15
2017-12-19T11:37:30.704Z,35.92
2017-12-19T11:39:58.152Z,31.40
2017-12-19T11:42:25.655Z,33.63
2017-12-19T11:44:53.092Z,33.20
2017-12-19T11:47:20.540Z,38.78
2017-12-19T11:49:48.010Z,38.92
2017-12-19T11:52:15.459Z,53.63
2017-12-19T11:54:43.131Z,115.75
2017-12-19T11:57:10.577Z,121.45
2017-12-19T11:59:38.020Z,59.05
2017-12-19T12:02:05.493Z,60.33
2017-12-19T12:04:33.929Z,44.97
2017-12-19T12:07:01.374Z,73.68
2017-12-19T12:09:29.613Z,32.58
2017-12-19T12:11:57.061Z,31.62
2017-12-19T12:14:24.676Z,29.48
2017-12-19T12:16:52.887Z,28.85
2017-12-19T12:19:24.976Z,29.80
2017-12-19T12:21:52.421Z,29.05
2017-12-19T12:24:19.861Z,39.15
2017-12-19T12:26:47.333Z,32.00
2017-12-19T12:29:14.780Z,28.67
2017-12-19T12:31:42.390Z,30.70
2017-12-19T12:34:10.606Z,38.35
2017-12-19T12:36:42.141Z,35.00
2017-12-19T12:39:09.585Z,47.78
2017-12-19T12:42:00.056Z,46.60
2017-12-19T12:44:27.505Z,46.08
2017-12-19T12:46:54.961Z,36.42
2017-12-19T12:49:22.581Z,41.67
2017-12-19T12:51:56.037Z,37.33
2017-12-19T12:54:23.535Z,33.35
2017-12-19T12:56:50.972Z,32.92
2017-12-19T12:59:19.230Z,29.10
2017-12-19T13:01:50.730Z,28.30
2017-12-19T13:04:18.162Z,35.55
2017-12-19T13:06:46.376Z,47.92
2017-12-19T13:09:13.825Z,37.00
2017-12-19T13:11:41.817Z,35.60
2017-12-19T13:14:09.266Z,35.92
2017-12-19T13:16:36.714Z,43.33
2017-12-19T13:19:11.065Z,35.33
2017-12-19T13:21:38.504Z,36.17
2017-12-19T13:24:06.117Z,35.88
2017-12-19T13:29:25.070Z,33.30
2017-12-19T13:31:52.513Z,32.10
2017-12-19T13:37:10.638Z,30.50
2017-12-19T13:39:38.117Z,35.97
2017-12-19T13:42:18.442Z,30.23
2017-12-19T13:44:46.021Z,27.10
2017-12-19T13:47:14.225Z,27.90
2017-12-19T13:49:41.668Z,33.05
2017-12-19T13:52:09.136Z,34.55
2017-12-19T13:57:37.274Z,28.92
2017-12-19T14:00:05.134Z,28.70
2017-12-19T14:02:33.345Z,30.58
2017-12-19T14:05:04.669Z,28.50
2017-12-19T14:07:32.142Z,32.38
2017-12-19T14:09:59.645Z,50.67
2017-12-19T14:12:27.089Z,29.73
2017-12-19T14:14:54.557Z,34.63
2017-12-19T14:17:22.119Z,28.90
2017-12-19T14:19:49.557Z,28.48
2017-12-19T14:22:17.962Z,32.97
2017-12-19T14:24:45.477Z,31.87
2017-12-19T14:27:12.934Z,28.55
2017-12-19T14:29:40.466Z,35.30
2017-12-19T14:32:08.680Z,37.45
2017-12-19T14:34:36.149Z,27.67
2017-12-19T14:37:03.598Z,34.53
2017-12-19T14:39:31.473Z,30.65
2017-12-19T14:41:58.923Z,28.67
2017-12-19T14:44:26.365Z,32.42
2017-12-19T14:47:00.656Z,22.70
2017-12-19T14:49:28.908Z,27.08
2017-12-19T14:51:56.348Z,31.20
2017-12-19T14:54:23.845Z,27.50
2017-12-19T14:56:52.057Z,25.33
2017-12-19T14:59:20.273Z,25.08
2017-12-19T15:01:47.745Z,30.77
2017-12-19T15:04:15.190Z,26.27
2017-12-19T15:06:43.016Z,27.48
2017-12-19T15:09:10.460Z,26.40
2017-12-19T15:11:37.897Z,26.27
2017-12-19T15:14:05.380Z,25.20
2017-12-19T15:16:32.840Z,27.25
2017-12-19T15:19:00.296Z,28.12
2017-12-19T15:21:27.821Z,26.80
2017-12-19T15:23:56.188Z,27.80
2017-12-19T15:26:23.621Z,25.40
2017-12-19T15:28:51.305Z,29.48
2017-12-19T15:31:18.754Z,28.77
2017-12-19T15:33:46.224Z,28.90
2017-12-19T15:36:13.664Z,32.30
2017-12-19T15:38:41.362Z,32.35
2017-12-19T15:41:09.705Z,27.90
2017-12-19T15:43:37.176Z,27.00
2017-12-19T15:46:04.613Z,26.90
2017-12-19T15:48:34.518Z,29.73
2017-12-19T15:51:01.965Z,29.05
2017-12-19T15:53:29.410Z,28.38
2017-12-19T15:55:57.197Z,26.20
2017-12-19T15:58:24.637Z,34.70
2017-12-19T16:00:52.089Z,27.75
2017-12-19T16:03:19.572Z,31.40
2017-12-19T16:05:47.049Z,37.42
2017-12-19T16:08:14.496Z,31.65
2017-12-19T16:10:42.061Z,29.55
2017-12-19T16:13:09.505Z,34.17
2017-12-19T16:15:52.855Z,28.60
2017-12-19T16:18:20.369Z,33.13
2017-12-19T16:20:47.822Z,28.15
2017-12-19T16:23:15.440Z,31.65
2017-12-19T16:25:44.890Z,31.90
2017-12-19T16:28:12.330Z,29.05
2017-12-19T16:30:39.937Z,29.37
2017-12-19T16:33:08.453Z,32.88
2017-12-19T16:35:36.733Z,30.60
2017-12-19T16:38:05.030Z,37.40
2017-12-19T16:40:32.497Z,37.25
2017-12-19T16:43:00.397Z,35.95
2017-12-19T16:45:27.860Z,34.85
2017-12-19T16:47:55.315Z,45.10
2017-12-19T16:50:22.966Z,31.30
2017-12-19T16:52:50.421Z,35.80
2017-12-19T16:55:17.917Z,33.30
2017-12-19T16:57:45.361Z,30.30
2017-12-19T17:00:12.801Z,35.83
2017-12-19T17:02:40.269Z,55.12
2017-12-19T17:05:07.891Z,45.00
2017-12-19T17:07:35.334Z,35.40
2017-12-19T17:10:02.817Z,37.47
2017-12-19T17:12:30.263Z,39.20
2017-12-19T17:14:57.825Z,41.47
2017-12-19T17:17:25.293Z,44.67
2017-12-19T17:19:54.762Z,41.58
2017-12-19T17:22:22.969Z,41.75
2017-12-19T17:24:50.533Z,39.28
2017-12-19T17:27:17.996Z,44.33
2017-12-19T17:29:45.435Z,39.00
2017-12-19T17:32:14.923Z,33.90
2017-12-19T17:34:42.420Z,35.50
2017-12-19T17:37:10.037Z,29.55
2017-12-19T17:39:38.265Z,29.73
2017-12-19T17:42:06.665Z,31.08
2017-12-19T17:44:34.301Z,33.08
2017-12-19T17:47:01.754Z,29.37
2017-12-19T17:49:29.197Z,27.08
2017-12-19T17:51:56.668Z,27.08
2017-12-19T17:54:24.138Z,31.30
2017-12-19T17:56:52.528Z,32.25
2017-12-19T17:59:19.998Z,28.55
2017-12-19T18:01:47.444Z,39.67
2017-12-19T18:04:14.937Z,39.60
2017-12-19T18:06:43.134Z,43.55
2017-12-19T18:09:11.724Z,42.15
2017-12-19T18:11:39.168Z,61.83
2017-12-19T18:14:07.838Z,79.40
2017-12-19T18:16:35.290Z,43.17
2017-12-19T18:19:04.033Z,44.33
2017-12-19T18:21:31.498Z,42.28
2017-12-19T18:23:58.962Z,35.35
2017-12-19T18:26:26.816Z,36.80
2017-12-19T18:28:54.261Z,36.13
2017-12-19T18:31:21.710Z,36.08
2017-12-19T18:33:49.189Z,34.72
2017-12-19T18:36:16.637Z,34.90
2017-12-19T18:38:44.084Z,35.53
2017-12-19T18:41:15.498Z,34.72
2017-12-19T18:43:43.702Z,34.25
2017-12-19T18:46:11.137Z,30.42
2017-12-19T18:48:39.373Z,32.50
2017-12-19T18:51:06.837Z,31.33
2017-12-19T18:53:34.302Z,30.17
2017-12-19T18:56:01.750Z,34.10
2017-12-19T18:58:29.405Z,32.47
2017-12-19T19:00:56.851Z,41.33
2017-12-19T19:03:24.289Z,55.42
2017-12-19T19:05:51.757Z,62.05
2017-12-19T19:08:19.194Z,61.70
2017-12-19T19:10:46.661Z,57.13
2017-12-19T19:13:14.100Z,45.67
2017-12-19T19:15:43.338Z,41.05
2017-12-19T19:18:10.778Z,44.30
2017-12-19T19:20:38.222Z,39.17
2017-12-19T19:23:05.808Z,51.20
2017-12-19T19:25:33.252Z,87.90
2017-12-19T19:28:00.693Z,48.97
2017-12-19T19:30:28.259Z,43.63
2017-12-19T19:32:55.696Z,38.15
2017-12-19T19:35:23.969Z,47.10
2017-12-19T19:37:52.173Z,44.63
2017-12-19T19:40:19.654Z,45.72
2017-12-19T19:42:47.093Z,53.35
2017-12-19T19:45:14.534Z,35.47
2017-12-19T19:47:42.135Z,37.70
2017-12-19T19:50:09.628Z,42.47
2017-12-19T19:52:37.834Z,28.70
2017-12-19T19:55:05.288Z,37.67
2017-12-19T19:57:37.367Z,33.10
2017-12-19T20:00:04.808Z,31.33
2017-12-19T20:02:32.490Z,34.33
2017-12-19T20:04:59.921Z,33.40
2017-12-19T20:07:27.413Z,31.70
2017-12-19T20:09:54.851Z,43.08
2017-12-19T20:12:22.284Z,31.37
2017-12-19T20:14:56.598Z,36.05
2017-12-19T20:17:24.830Z,27.95
2017-12-19T20:19:52.270Z,33.17
2017-12-19T20:22:23.437Z,34.35
2017-12-19T20:24:51.561Z,34.38
2017-12-19T20:27:19.041Z,33.17
2017-12-19T20:29:46.626Z,31.05
2017-12-19T20:32:14.138Z,38.03
2017-12-19T20:34:41.579Z,44.33
2017-12-19T20:37:09.816Z,33.15
2017-12-19T20:39:37.375Z,46.85
2017-12-19T20:42:04.942Z,61.47
2017-12-19T20:44:32.393Z,38.13
2017-12-19T20:47:00.815Z,67.97
2017-12-19T20:49:29.026Z,38.13
2017-12-19T20:51:56.526Z,35.80
2017-12-19T20:54:23.962Z,46.60
2017-12-19T20:56:51.404Z,33.85
2017-12-19T20:59:19.730Z,39.42
2017-12-19T21:01:47.961Z,34.50
2017-12-19T21:04:15.406Z,35.45
2017-12-19T21:06:43.194Z,33.95
2017-12-19T21:09:25.254Z,34.30
2017-12-19T21:11:52.717Z,31.25
2017-12-19T21:14:21.641Z,34.17
2017-12-19T21:16:49.089Z,31.42
2017-12-19T21:19:16.540Z,33.75
2017-12-19T21:21:44.421Z,33.55
2017-12-19T21:24:12.032Z,28.95
2017-12-19T21:26:40.407Z,29.70
2017-12-19T21:29:09.812Z,28.70
2017-12-19T21:31:38.072Z,27.23
2017-12-19T21:34:05.673Z,25.45
2017-12-19T21:36:33.118Z,26.90
2017-12-19T21:39:00.622Z,28.50
2017-12-19T21:41:40.937Z,24.67
2017-12-19T21:44:08.429Z,26.52
2017-12-19T21:46:35.878Z,26.35
2017-12-19T21:49:04.095Z,23.60
2017-12-19T21:51:31.741Z,24.12
2017-12-19T21:53:59.189Z,25.10
2017-12-19T21:56:42.613Z,21.02
2017-12-19T21:59:10.081Z,23.33
2017-12-19T22:01:37.561Z,22.40
2017-12-19T22:04:04.992Z,22.95
2017-12-19T22:06:33.745Z,25.25
2017-12-19T22:09:15.580Z,33.38
2017-12-19T22:11:43.021Z,22.55
2017-12-19T22:14:10.512Z,22.90
2017-12-19T22:16:37.945Z,22.00
2017-12-19T22:19:05.411Z,19.55
2017-12-19T22:21:32.853Z,21.08
2017-12-19T22:24:02.996Z,20.52
2017-12-19T22:26:30.446Z,19.20
2017-12-19T22:28:57.885Z,19.20
2017-12-19T22:31:25.387Z,23.10
2017-12-19T22:33:52.876Z,21.73
2017-12-19T22:36:20.317Z,20.12
2017-12-19T22:38:48.528Z,19.40
2017-12-19T22:41:16.116Z,18.75
2017-12-19T22:43:43.554Z,22.30
2017-12-19T22:46:11.046Z,19.87
2017-12-19T22:48:38.485Z,19.77
2017-12-19T22:51:05.922Z,20.15
2017-12-19T22:53:40.151Z,20.95
2017-12-19T22:56:07.616Z,24.90
2017-12-19T22:58:35.053Z,20.65
2017-12-19T23:01:02.819Z,18.75
2017-12-19T23:03:30.249Z,19.02
2017-12-19T23:05:57.689Z,18.48
2017-12-19T23:08:25.919Z,30.02
2017-12-19T23:10:57.402Z,28.95
2017-12-19T23:13:24.870Z,35.25
2017-12-19T23:15:53.078Z,47.83
2017-12-19T23:18:20.584Z,27.27
2017-12-19T23:20:48.150Z,27.37
2017-12-19T23:23:19.311Z,26.00
2017-12-19T23:25:48.489Z,21.77
2017-12-19T23:28:16.870Z,21.87
2017-12-19T23:30:44.357Z,22.15
2017-12-19T23:33:12.565Z,17.90
2017-12-19T23:35:40.769Z,18.70
2017-12-19T23:38:08.426Z,16.98
2017-12-19T23:40:35.865Z,18.12
2017-12-19T23:43:03.300Z,19.65
2017-12-19T23:45:30.769Z,19.45
2017-12-19T23:47:58.206Z,17.30
2017-12-19T23:50:25.664Z,20.88
2017-12-19T23:52:53.101Z,18.85
2017-12-19T23:55:21.386Z,20.00
2017-12-19T23:57:49.594Z,19.52
